createdAt,value
2022-11-03T00:00:00.278Z,0.00
2022-11-03T00:01:02.454Z,0.00
2022-11-03T00:02:00.977Z,0.00
2022-11-03T00:03:04.272Z,0.00
2022-11-03T00:04:01.424Z,0.00
2022-11-03T00:05:01.716Z,0.00
2022-11-03T00:06:03.908Z,0.00
2022-11-03T00:07:02.286Z,0.00
2022-11-03T00:08:05.520Z,0.00
2022-11-03T00:09:02.919Z,0.00
2022-11-03T00:10:03.228Z,0.00
2022-11-03T00:11:03.526Z,0.00
2022-11-03T00:12:05.716Z,0.00
2022-11-03T00:13:05.467Z,0.00
2022-11-03T00:14:04.428Z,0.00
2022-11-03T00:15:04.718Z,0.00
2022-11-03T00:16:05.026Z,0.00
2022-11-03T00:17:07.213Z,0.00
2022-11-03T00:18:08.368Z,0.00
2022-11-03T00:19:05.895Z,0.00
2022-11-03T00:20:09.043Z,0.00
2022-11-03T00:21:06.427Z,0.00
2022-11-03T00:22:09.569Z,0.00
2022-11-03T00:23:10.277Z,0.00
2022-11-03T00:24:08.000Z,0.00
2022-11-03T00:25:08.416Z,0.00
2022-11-03T00:26:07.795Z,0.00
2022-11-03T00:27:09.990Z,0.00
2022-11-03T00:28:09.413Z,0.00
2022-11-03T00:29:09.575Z,0.00
2022-11-03T00:30:09.729Z,0.00
2022-11-03T00:31:10.172Z,0.00
2022-11-03T00:32:11.409Z,0.00
2022-11-03T00:33:11.618Z,0.00
2022-11-03T00:34:11.074Z,0.00
2022-11-03T00:35:11.297Z,0.00
2022-11-03T00:36:11.458Z,0.00
2022-11-03T00:37:12.849Z,0.00
2022-11-03T00:38:13.028Z,0.00
2022-11-03T00:39:13.223Z,0.00
2022-11-03T00:40:12.793Z,0.00
2022-11-03T00:41:13.146Z,0.00
2022-11-03T00:42:13.185Z,0.00
2022-11-03T00:43:14.584Z,0.00
2022-11-03T00:44:14.779Z,0.00
2022-11-03T00:45:13.292Z,0.00
2022-11-03T00:46:13.593Z,0.00
2022-11-03T00:47:18.893Z,0.00
2022-11-03T00:48:16.976Z,0.00
2022-11-03T00:49:16.157Z,0.00
2022-11-03T00:50:14.782Z,0.00
2022-11-03T00:51:16.273Z,0.00
2022-11-03T00:52:15.369Z,0.00
2022-11-03T00:53:16.553Z,0.00
2022-11-03T00:54:15.910Z,0.00
2022-11-03T00:55:16.196Z,0.00
2022-11-03T00:56:16.514Z,0.00
2022-11-03T00:57:17.703Z,0.00
2022-11-03T00:58:17.901Z,0.00
2022-11-03T00:59:19.575Z,0.00
2022-11-03T01:00:19.293Z,0.00
2022-11-03T01:01:20.043Z,0.00
2022-11-03T01:02:20.311Z,0.00
2022-11-03T01:03:20.327Z,0.00
2022-11-03T01:04:20.490Z,0.00
2022-11-03T01:05:19.109Z,0.00
2022-11-03T01:06:21.283Z,0.00
2022-11-03T01:07:21.467Z,0.00
2022-11-03T01:08:23.752Z,0.00
2022-11-03T01:09:22.823Z,0.00
2022-11-03T01:10:22.511Z,0.00
2022-11-03T01:11:20.961Z,0.00
2022-11-03T01:12:23.083Z,0.00
2022-11-03T01:13:23.274Z,0.00
2022-11-03T01:14:23.595Z,0.00
2022-11-03T01:15:23.614Z,0.00
2022-11-03T01:16:22.356Z,0.00
2022-11-03T01:17:22.669Z,0.00
2022-11-03T01:18:24.854Z,0.00
2022-11-03T01:19:25.033Z,0.00
2022-11-03T01:20:23.535Z,0.00
2022-11-03T01:21:25.706Z,0.00
2022-11-03T01:22:26.855Z,0.00
2022-11-03T01:23:25.091Z,0.00
2022-11-03T01:24:26.296Z,0.00
2022-11-03T01:25:26.943Z,0.00
2022-11-03T01:26:25.315Z,0.00
2022-11-03T01:27:26.554Z,0.00
2022-11-03T01:28:27.845Z,0.00
2022-11-03T01:29:27.513Z,0.00
2022-11-03T01:30:26.506Z,0.00
2022-11-03T01:31:27.800Z,0.00
2022-11-03T01:32:29.042Z,0.00
2022-11-03T01:33:27.284Z,0.00
2022-11-03T01:34:29.476Z,0.00
2022-11-03T01:35:29.636Z,0.00
2022-11-03T01:36:28.136Z,0.00
2022-11-03T01:37:29.428Z,0.00
2022-11-03T01:38:28.776Z,0.00
2022-11-03T01:39:30.954Z,0.00
2022-11-03T01:40:29.343Z,0.00
2022-11-03T01:41:29.632Z,0.00
2022-11-03T01:42:29.965Z,0.00
2022-11-03T01:43:32.111Z,0.00
2022-11-03T01:44:32.313Z,0.00
2022-11-03T01:45:32.492Z,0.00
2022-11-03T01:46:31.135Z,0.00
2022-11-03T01:47:32.888Z,0.00
2022-11-03T01:48:31.756Z,0.00
2022-11-03T01:49:32.073Z,0.00
2022-11-03T01:50:34.273Z,0.00
2022-11-03T01:51:32.645Z,0.00
2022-11-03T01:52:34.054Z,0.00
2022-11-03T01:53:33.225Z,0.00
2022-11-03T01:54:33.526Z,0.00
2022-11-03T01:55:35.707Z,0.00
2022-11-03T01:56:34.082Z,0.00
2022-11-03T01:57:35.171Z,0.00
2022-11-03T01:58:34.655Z,0.00
2022-11-03T01:59:36.850Z,0.00
2022-11-03T02:00:37.035Z,0.00
2022-11-03T02:01:36.593Z,0.00
2022-11-03T02:02:39.187Z,0.00
2022-11-03T02:03:36.081Z,0.00
2022-11-03T02:04:38.289Z,0.00
2022-11-03T02:05:38.475Z,0.00
2022-11-03T02:06:36.971Z,0.00
2022-11-03T02:07:38.052Z,0.00
2022-11-03T02:08:37.547Z,0.00
2022-11-03T02:09:37.837Z,0.00
2022-11-03T02:10:40.034Z,0.00
2022-11-03T02:11:40.214Z,0.00
2022-11-03T02:12:39.618Z,0.00
2022-11-03T02:13:38.968Z,0.00
2022-11-03T02:14:39.263Z,0.00
2022-11-03T02:15:42.889Z,0.00
2022-11-03T02:16:41.691Z,0.00
2022-11-03T02:17:43.428Z,0.00
2022-11-03T02:18:40.478Z,0.00
2022-11-03T02:19:40.769Z,0.00
2022-11-03T02:20:41.069Z,0.00
2022-11-03T02:21:43.252Z,0.00
2022-11-03T02:22:44.923Z,0.00
2022-11-03T02:23:43.659Z,0.00
2022-11-03T02:24:42.276Z,0.00
2022-11-03T02:25:43.501Z,0.00
2022-11-03T02:26:43.649Z,0.00
2022-11-03T02:27:45.992Z,0.00
2022-11-03T02:28:43.423Z,0.00
2022-11-03T02:29:43.702Z,0.00
2022-11-03T02:30:45.906Z,0.00
2022-11-03T02:31:46.051Z,0.00
2022-11-03T02:32:46.893Z,0.00
2022-11-03T02:33:46.732Z,0.00
2022-11-03T02:34:46.848Z,0.00
2022-11-03T02:35:47.431Z,0.00
2022-11-03T02:36:47.682Z,0.00
2022-11-03T02:37:47.894Z,0.00
2022-11-03T02:38:47.119Z,0.00
2022-11-03T02:39:47.426Z,0.00
2022-11-03T02:40:46.776Z,0.00
2022-11-03T02:41:49.893Z,0.00
2022-11-03T02:42:50.063Z,0.00
2022-11-03T02:43:49.377Z,0.00
2022-11-03T02:44:49.515Z,0.00
2022-11-03T02:45:48.250Z,0.00
2022-11-03T02:46:50.415Z,0.00
2022-11-03T02:47:49.756Z,0.00
2022-11-03T02:48:50.986Z,0.00
2022-11-03T02:49:51.213Z,0.00
2022-11-03T02:50:51.374Z,0.00
2022-11-03T02:51:51.555Z,0.00
2022-11-03T02:52:52.715Z,0.00
2022-11-03T02:53:52.445Z,0.00
2022-11-03T02:54:52.634Z,0.00
2022-11-03T02:55:52.835Z,0.00
2022-11-03T02:56:51.504Z,0.00
2022-11-03T02:57:55.246Z,0.00
2022-11-03T02:58:53.980Z,0.00
2022-11-03T02:59:53.174Z,0.00
2022-11-03T03:00:52.756Z,0.00
2022-11-03T03:01:53.975Z,0.00
2022-11-03T03:02:56.565Z,0.00
2022-11-03T03:03:55.300Z,0.00
2022-11-03T03:04:55.464Z,0.00
2022-11-03T03:05:55.664Z,0.00
2022-11-03T03:06:56.347Z,0.00
2022-11-03T03:07:57.554Z,0.00
2022-11-03T03:08:54.954Z,0.00
2022-11-03T03:09:57.138Z,0.00
2022-11-03T03:10:57.316Z,0.00
2022-11-03T03:11:57.483Z,0.00
2022-11-03T03:12:56.223Z,0.00
2022-11-03T03:13:58.346Z,0.00
2022-11-03T03:14:56.594Z,0.00
2022-11-03T03:15:58.947Z,0.00
2022-11-03T03:16:57.226Z,0.00
2022-11-03T03:17:57.578Z,0.00
2022-11-03T03:18:59.723Z,0.00
2022-11-03T03:19:58.089Z,0.00
2022-11-03T03:21:01.729Z,0.00
2022-11-03T03:22:01.448Z,0.00
2022-11-03T03:23:01.579Z,0.00
2022-11-03T03:24:00.827Z,0.00
2022-11-03T03:24:59.445Z,0.00
2022-11-03T03:26:01.671Z,0.00
2022-11-03T03:27:00.048Z,0.00
2022-11-03T03:28:02.830Z,0.00
2022-11-03T03:29:00.586Z,0.00
2022-11-03T03:30:02.788Z,0.00
2022-11-03T03:31:02.970Z,0.00
2022-11-03T03:32:01.463Z,0.00
2022-11-03T03:33:04.956Z,0.00
2022-11-03T03:34:04.836Z,0.00
2022-11-03T03:35:02.328Z,0.00
2022-11-03T03:36:04.507Z,0.00
2022-11-03T03:37:02.885Z,0.00
2022-11-03T03:38:06.788Z,0.00
2022-11-03T03:39:03.496Z,0.00
2022-11-03T03:40:03.795Z,0.00
2022-11-03T03:41:10.489Z,0.00
2022-11-03T03:42:04.360Z,0.00
2022-11-03T03:43:05.763Z,0.00
2022-11-03T03:44:04.969Z,0.00
2022-11-03T03:45:06.122Z,0.00
2022-11-03T03:46:07.462Z,0.00
2022-11-03T03:47:05.831Z,0.00
2022-11-03T03:48:09.145Z,0.00
2022-11-03T03:49:06.414Z,0.00
2022-11-03T03:50:06.706Z,0.00
2022-11-03T03:51:08.893Z,0.00
2022-11-03T03:52:07.272Z,0.00
2022-11-03T03:53:10.420Z,0.00
2022-11-03T03:54:07.823Z,0.00
2022-11-03T03:55:11.511Z,0.00
2022-11-03T03:56:08.368Z,0.00
2022-11-03T03:57:10.543Z,0.00
2022-11-03T03:58:12.303Z,0.00
2022-11-03T03:59:09.198Z,0.00
2022-11-03T04:00:09.501Z,0.00
2022-11-03T04:01:10.841Z,0.00
2022-11-03T04:02:12.005Z,0.00
2022-11-03T04:03:12.147Z,0.00
2022-11-03T04:04:10.643Z,0.00
2022-11-03T04:05:10.949Z,0.00
2022-11-03T04:06:13.150Z,0.00
2022-11-03T04:07:11.523Z,0.00
2022-11-03T04:08:13.712Z,0.00
2022-11-03T04:09:12.091Z,0.00
2022-11-03T04:10:12.394Z,0.00
2022-11-03T04:11:12.697Z,0.00
2022-11-03T04:12:14.882Z,0.00
2022-11-03T04:13:15.083Z,0.00
2022-11-03T04:14:13.587Z,0.00
2022-11-03T04:15:13.881Z,0.00
2022-11-03T04:16:17.064Z,0.00
2022-11-03T04:17:16.297Z,0.00
2022-11-03T04:18:17.433Z,0.00
2022-11-03T04:19:17.627Z,0.00
2022-11-03T04:20:16.323Z,0.00
2022-11-03T04:21:18.133Z,0.00
2022-11-03T04:22:17.896Z,0.00
2022-11-03T04:23:18.067Z,0.00
2022-11-03T04:24:17.477Z,0.00
2022-11-03T04:25:18.740Z,0.00
2022-11-03T04:26:17.136Z,0.00
2022-11-03T04:27:19.317Z,0.00
2022-11-03T04:28:18.689Z,0.00
2022-11-03T04:29:18.025Z,0.00
2022-11-03T04:30:18.337Z,0.00
2022-11-03T04:31:18.614Z,0.00
2022-11-03T04:32:20.814Z,0.00
2022-11-03T04:33:19.207Z,0.00
2022-11-03T04:34:21.377Z,0.00
2022-11-03T04:35:20.776Z,0.00
2022-11-03T04:36:20.931Z,0.00
2022-11-03T04:37:21.090Z,0.00
2022-11-03T04:38:21.507Z,0.00
2022-11-03T04:39:22.752Z,0.00
2022-11-03T04:40:22.069Z,0.00
2022-11-03T04:41:22.383Z,0.00
2022-11-03T04:42:22.415Z,0.00
2022-11-03T04:43:23.783Z,0.00
2022-11-03T04:44:22.166Z,0.00
2022-11-03T04:45:24.343Z,0.00
2022-11-03T04:46:23.712Z,0.00
2022-11-03T04:47:23.023Z,0.00
2022-11-03T04:48:25.136Z,0.00
2022-11-03T04:49:25.318Z,0.00
2022-11-03T04:50:23.806Z,0.00
2022-11-03T04:51:24.103Z,0.00
2022-11-03T04:52:24.454Z,0.00
2022-11-03T04:53:26.594Z,0.00
2022-11-03T04:54:25.019Z,0.00
2022-11-03T04:55:26.164Z,0.00
2022-11-03T04:56:25.533Z,0.00
2022-11-03T04:57:26.849Z,0.00
2022-11-03T04:58:29.516Z,0.00
2022-11-03T04:59:28.189Z,0.00
2022-11-03T05:00:26.690Z,0.00
2022-11-03T05:01:27.132Z,0.00
2022-11-03T05:02:28.231Z,0.00
2022-11-03T05:03:29.475Z,0.00
2022-11-03T05:04:29.663Z,0.00
2022-11-03T05:05:29.851Z,0.00
2022-11-03T05:06:30.115Z,0.00
2022-11-03T05:07:28.776Z,0.00
2022-11-03T05:08:30.916Z,0.00
2022-11-03T05:09:31.083Z,0.00
2022-11-03T05:10:31.269Z,0.00
2022-11-03T05:11:31.440Z,0.00
2022-11-03T05:12:33.620Z,0.00
2022-11-03T05:13:30.405Z,0.00
2022-11-03T05:14:32.593Z,0.00
2022-11-03T05:15:30.974Z,0.00
2022-11-03T05:16:33.133Z,0.00
2022-11-03T05:17:33.516Z,0.00
2022-11-03T05:18:31.775Z,0.00
2022-11-03T05:19:33.958Z,0.00
2022-11-03T05:20:36.275Z,0.00
2022-11-03T05:21:34.291Z,0.00
2022-11-03T05:22:35.462Z,0.00
2022-11-03T05:23:33.212Z,0.00
2022-11-03T05:24:33.514Z,0.00
2022-11-03T05:25:33.800Z,0.00
2022-11-03T05:26:35.988Z,0.00
2022-11-03T05:27:35.235Z,0.00
2022-11-03T05:28:34.589Z,0.00
2022-11-03T05:29:34.883Z,0.00
2022-11-03T05:30:35.177Z,0.00
2022-11-03T05:31:35.480Z,0.00
2022-11-03T05:32:38.624Z,0.00
2022-11-03T05:33:36.031Z,0.00
2022-11-03T05:34:36.333Z,0.00
2022-11-03T05:35:36.669Z,0.00
2022-11-03T05:36:38.325Z,0.00
2022-11-03T05:37:38.113Z,0.00
2022-11-03T05:38:37.664Z,0.00
2022-11-03T05:39:37.954Z,0.00
2022-11-03T05:40:38.264Z,0.00
2022-11-03T05:41:40.461Z,0.00
2022-11-03T05:42:41.745Z,0.00
2022-11-03T05:43:39.134Z,0.00
2022-11-03T05:44:41.325Z,0.00
2022-11-03T05:45:39.693Z,0.00
2022-11-03T05:46:41.867Z,0.00
2022-11-03T05:47:42.772Z,0.00
2022-11-03T05:48:40.536Z,0.00
2022-11-03T05:49:42.718Z,0.00
2022-11-03T05:50:41.092Z,0.00
2022-11-03T05:51:43.266Z,0.00
2022-11-03T05:52:41.672Z,0.00
2022-11-03T05:53:41.867Z,4.00
2022-11-03T05:54:44.049Z,4.00
2022-11-03T05:55:44.229Z,4.00
2022-11-03T05:56:42.726Z,0.00
2022-11-03T05:57:44.005Z,0.00
2022-11-03T05:58:43.452Z,4.00
2022-11-03T05:59:46.997Z,4.00
2022-11-03T06:00:48.335Z,0.00
2022-11-03T06:01:44.314Z,4.00
2022-11-03T06:02:44.582Z,8.00
2022-11-03T06:03:45.604Z,4.00
2022-11-03T06:04:46.958Z,4.00
2022-11-03T06:05:45.198Z,8.00
2022-11-03T06:06:47.389Z,12.00
2022-11-03T06:07:45.763Z,12.00
2022-11-03T06:08:47.049Z,12.00
2022-11-03T06:09:48.287Z,12.00
2022-11-03T06:10:46.668Z,20.00
2022-11-03T06:11:47.977Z,20.00
2022-11-03T06:12:47.224Z,24.00
2022-11-03T06:13:47.599Z,24.00
2022-11-03T06:14:49.761Z,32.00
2022-11-03T06:15:48.021Z,36.00
2022-11-03T06:16:48.335Z,40.00
2022-11-03T06:17:48.643Z,48.00
2022-11-03T06:18:49.795Z,48.00
2022-11-03T06:19:49.296Z,56.00
2022-11-03T06:20:52.933Z,64.00
2022-11-03T06:21:52.297Z,76.00
2022-11-03T06:22:50.186Z,84.00
2022-11-03T06:23:53.329Z,92.00
2022-11-03T06:24:51.520Z,96.00
2022-11-03T06:25:53.855Z,104.00
2022-11-03T06:26:52.098Z,116.00
2022-11-03T06:27:52.517Z,124.00
2022-11-03T06:28:55.253Z,140.00
2022-11-03T06:29:53.132Z,148.00
2022-11-03T06:30:53.461Z,164.00
2022-11-03T06:31:53.674Z,180.00
2022-11-03T06:32:53.178Z,200.00
2022-11-03T06:33:55.530Z,216.00
2022-11-03T06:34:53.811Z,244.00
2022-11-03T06:35:55.075Z,272.00
2022-11-03T06:36:55.414Z,296.00
2022-11-03T06:37:56.644Z,324.00
2022-11-03T06:38:57.584Z,356.00
2022-11-03T06:39:56.239Z,384.00
2022-11-03T06:40:56.566Z,408.00
2022-11-03T06:41:56.904Z,440.00
2022-11-03T06:42:57.219Z,484.00
2022-11-03T06:43:59.453Z,524.00
2022-11-03T06:44:56.872Z,572.00
2022-11-03T06:45:57.191Z,620.00
2022-11-03T06:46:57.525Z,668.00
2022-11-03T06:47:58.704Z,724.00
2022-11-03T06:48:59.089Z,788.00
2022-11-03T06:50:00.297Z,864.00
2022-11-03T06:51:00.569Z,948.00
2022-11-03T06:51:58.853Z,1040.00
2022-11-03T06:53:01.043Z,1124.00
2022-11-03T06:54:01.255Z,1204.00
2022-11-03T06:55:01.387Z,1300.00
2022-11-03T06:56:02.564Z,1404.00
2022-11-03T06:57:02.292Z,1512.00
2022-11-03T06:58:03.945Z,1612.00
2022-11-03T06:59:02.684Z,1708.00
2022-11-03T07:00:20.275Z,1784.00
2022-11-03T07:01:04.138Z,1872.00
2022-11-03T07:02:01.879Z,1952.00
2022-11-03T07:03:02.124Z,2040.00
2022-11-03T07:04:04.302Z,2132.00
2022-11-03T07:05:02.582Z,2224.00
2022-11-03T07:06:03.293Z,2324.00
2022-11-03T07:07:03.188Z,2424.00
2022-11-03T07:08:03.525Z,2508.00
2022-11-03T07:09:05.712Z,2596.00
2022-11-03T07:10:04.125Z,2692.00
2022-11-03T07:11:05.439Z,2792.00
2022-11-03T07:12:04.712Z,2896.00
2022-11-03T07:13:07.499Z,2976.00
2022-11-03T07:14:07.110Z,3048.00
2022-11-03T07:16:07.330Z,3156.00
2022-11-03T07:17:06.102Z,3232.00
2022-11-03T07:18:08.622Z,3324.00
2022-11-03T07:19:08.475Z,3444.00
2022-11-03T07:20:07.024Z,3576.00
2022-11-03T07:21:09.277Z,3692.00
2022-11-03T07:22:09.517Z,3812.00
2022-11-03T07:23:07.799Z,3928.00
2022-11-03T07:24:09.985Z,4032.00
2022-11-03T07:25:08.397Z,4132.00
2022-11-03T07:26:10.700Z,4240.00
2022-11-03T07:27:08.993Z,4344.00
2022-11-03T07:28:09.494Z,4440.00
2022-11-03T07:29:11.511Z,4560.00
2022-11-03T07:30:11.693Z,4664.00
2022-11-03T07:31:16.306Z,4752.00
2022-11-03T07:32:10.496Z,4840.00
2022-11-03T07:33:12.741Z,4908.00
2022-11-03T07:34:12.039Z,4988.00
2022-11-03T07:35:13.294Z,5064.00
2022-11-03T07:36:16.671Z,5152.00
2022-11-03T07:38:12.553Z,5320.00
2022-11-03T07:39:14.500Z,5412.00
2022-11-03T07:40:12.906Z,5484.00
2022-11-03T07:41:15.109Z,5576.00
2022-11-03T07:42:13.397Z,5668.00
2022-11-03T07:43:13.741Z,5744.00
2022-11-03T07:44:15.924Z,5868.00
2022-11-03T07:45:14.335Z,5952.00
2022-11-03T07:46:18.004Z,6176.00
2022-11-03T07:47:14.949Z,6292.00
2022-11-03T07:48:15.159Z,6484.00
2022-11-03T07:49:17.342Z,6700.00
2022-11-03T07:50:17.540Z,6788.00
2022-11-03T07:51:17.067Z,6928.00
2022-11-03T07:52:16.351Z,7260.00
2022-11-03T07:53:22.033Z,7536.00
2022-11-03T07:54:17.965Z,7372.00
2022-11-03T07:55:17.233Z,7440.00
2022-11-03T07:56:20.988Z,7728.00
2022-11-03T07:57:17.802Z,7808.00
2022-11-03T07:58:18.142Z,7820.00
2022-11-03T07:59:18.429Z,7936.00
2022-11-03T08:00:18.631Z,7956.00
2022-11-03T08:01:22.328Z,8020.00
2022-11-03T08:02:19.273Z,8092.00
2022-11-03T08:03:19.485Z,8164.00
2022-11-03T08:04:22.626Z,8232.00
2022-11-03T08:06:23.226Z,8364.00
2022-11-03T08:07:22.460Z,8352.00
2022-11-03T08:08:20.877Z,8444.00
2022-11-03T08:09:23.061Z,8524.00
2022-11-03T08:10:21.527Z,8604.00
2022-11-03T08:11:27.876Z,8628.00
2022-11-03T08:12:24.919Z,8692.00
2022-11-03T08:13:22.340Z,8800.00
2022-11-03T08:14:22.681Z,8836.00
2022-11-03T08:15:24.870Z,8876.00
2022-11-03T08:16:24.129Z,9004.00
2022-11-03T08:17:25.503Z,9116.00
2022-11-03T08:18:25.707Z,9376.00
2022-11-03T08:19:25.124Z,9440.00
2022-11-03T08:20:27.254Z,9532.00
2022-11-03T08:21:26.635Z,9644.00
2022-11-03T08:22:25.875Z,9684.00
2022-11-03T08:23:26.713Z,9788.00
2022-11-03T08:24:27.454Z,9896.00
2022-11-03T08:25:27.618Z,10064.00
2022-11-03T08:26:27.013Z,10236.00
2022-11-03T08:27:27.390Z,10468.00
2022-11-03T08:28:27.586Z,10764.00
2022-11-03T08:29:29.292Z,10876.00
2022-11-03T08:30:27.227Z,11080.00
2022-11-03T08:31:29.416Z,11156.00
2022-11-03T08:32:29.637Z,11264.00
2022-11-03T08:34:30.223Z,11244.00
2022-11-03T08:35:33.187Z,11488.00
2022-11-03T08:36:30.916Z,11836.00
2022-11-03T08:37:29.212Z,12268.00
2022-11-03T08:38:31.425Z,12664.00
2022-11-03T08:39:29.720Z,12892.00
2022-11-03T08:40:30.905Z,13176.00
2022-11-03T08:41:33.050Z,13184.00
2022-11-03T08:42:31.287Z,13168.00
2022-11-03T08:43:32.463Z,13464.00
2022-11-03T08:44:32.663Z,13224.00
2022-11-03T08:45:31.452Z,13040.00
2022-11-03T08:46:34.715Z,13068.00
2022-11-03T08:47:33.888Z,13212.00
2022-11-03T08:48:32.312Z,13144.00
2022-11-03T08:49:32.556Z,13048.00
2022-11-03T08:50:32.849Z,13136.00
2022-11-03T08:51:36.940Z,13268.00
2022-11-03T08:52:35.217Z,13356.00
2022-11-03T08:53:34.403Z,13304.00
2022-11-03T08:54:33.974Z,13360.00
2022-11-03T08:55:36.109Z,13300.00
2022-11-03T08:56:34.426Z,13356.00
2022-11-03T08:57:36.610Z,13580.00
2022-11-03T08:58:36.788Z,13532.00
2022-11-03T08:59:36.965Z,13484.00
2022-11-03T09:00:41.018Z,13304.00
2022-11-03T09:01:37.414Z,13400.00
2022-11-03T09:02:38.064Z,13492.00
2022-11-03T09:03:36.388Z,13572.00
2022-11-03T09:04:38.520Z,13400.00
2022-11-03T09:05:38.700Z,13296.00
2022-11-03T09:06:38.892Z,12952.00
2022-11-03T09:10:42.374Z,12592.00
2022-11-03T09:11:40.529Z,12812.00
2022-11-03T09:12:40.697Z,12788.00
2022-11-03T09:13:39.254Z,12796.00
2022-11-03T09:14:41.433Z,12832.00
2022-11-03T09:15:39.736Z,13072.00
2022-11-03T09:16:41.899Z,13104.00
2022-11-03T09:17:44.771Z,12864.00
2022-11-03T09:18:40.514Z,12576.00
2022-11-03T09:19:40.740Z,12184.00
2022-11-03T09:20:42.947Z,12496.00
2022-11-03T09:21:43.113Z,12640.00
2022-11-03T09:22:43.299Z,12564.00
2022-11-03T09:23:43.473Z,12540.00
2022-11-03T09:24:43.677Z,12316.00
2022-11-03T09:25:44.443Z,12604.00
2022-11-03T09:26:42.734Z,12824.00
2022-11-03T09:27:44.921Z,13000.00
2022-11-03T09:28:45.120Z,13228.00
2022-11-03T09:30:11.145Z,13260.00
2022-11-03T09:30:44.782Z,13096.00
2022-11-03T09:31:44.063Z,13164.00
2022-11-03T09:32:44.304Z,13188.00
2022-11-03T09:33:46.493Z,13640.00
2022-11-03T09:34:44.789Z,14100.00
2022-11-03T09:35:45.040Z,14736.00
2022-11-03T09:36:52.929Z,15672.00
2022-11-03T09:37:48.432Z,16704.00
2022-11-03T09:38:47.612Z,17536.00
2022-11-03T09:39:46.154Z,18240.00
2022-11-03T09:41:58.044Z,19104.00
2022-11-03T09:42:47.918Z,19104.00
2022-11-03T09:43:49.099Z,18560.00
2022-11-03T09:44:47.524Z,18624.00
2022-11-03T09:45:48.609Z,17824.00
2022-11-03T09:46:53.759Z,18208.00
2022-11-03T09:47:49.272Z,17536.00
2022-11-03T09:48:48.983Z,16852.00
2022-11-03T09:49:49.765Z,17472.00
2022-11-03T09:50:52.080Z,18016.00
2022-11-03T09:51:50.514Z,18208.00
2022-11-03T09:52:51.741Z,19072.00
2022-11-03T09:53:50.355Z,19232.00
2022-11-03T09:54:52.319Z,20288.00
2022-11-03T09:55:53.457Z,19680.00
2022-11-03T09:56:51.026Z,19424.00
2022-11-03T09:57:51.247Z,19232.00
2022-11-03T09:58:54.432Z,19168.00
2022-11-03T09:59:51.895Z,19328.00
2022-11-03T10:00:55.717Z,19328.00
2022-11-03T10:01:53.499Z,19488.00
2022-11-03T10:02:52.626Z,18912.00
2022-11-03T10:03:52.845Z,18176.00
2022-11-03T10:04:53.259Z,17952.00
2022-11-03T10:05:54.953Z,17888.00
2022-11-03T10:06:53.738Z,17536.00
2022-11-03T10:08:54.231Z,17344.00
2022-11-03T10:09:54.452Z,17568.00
2022-11-03T10:10:56.684Z,17568.00
2022-11-03T10:11:56.835Z,17696.00
2022-11-03T10:12:55.381Z,17856.00
2022-11-03T10:13:57.565Z,17920.00
2022-11-03T10:14:55.884Z,17696.00
2022-11-03T10:15:59.532Z,17792.00
2022-11-03T10:16:56.340Z,17984.00
2022-11-03T10:17:56.562Z,18560.00
2022-11-03T10:18:56.796Z,18720.00
2022-11-03T10:19:58.971Z,19296.00
2022-11-03T10:20:58.302Z,19392.00
2022-11-03T10:21:59.471Z,19648.00
2022-11-03T10:22:59.659Z,19360.00
2022-11-03T10:23:59.036Z,19584.00
2022-11-03T10:25:00.402Z,19712.00
2022-11-03T10:25:58.742Z,19552.00
2022-11-03T10:27:00.893Z,19168.00
2022-11-03T10:28:00.190Z,18880.00
2022-11-03T10:29:01.552Z,18560.00
2022-11-03T10:30:01.736Z,18464.00
2022-11-03T10:31:16.526Z,18336.00
2022-11-03T10:32:01.424Z,18272.00
2022-11-03T10:33:01.509Z,18240.00
2022-11-03T10:34:01.918Z,18080.00
2022-11-03T10:35:01.326Z,17920.00
2022-11-03T10:36:04.965Z,17920.00
2022-11-03T10:37:02.653Z,17856.00
2022-11-03T10:38:02.054Z,17696.00
2022-11-03T10:39:02.405Z,17472.00
2022-11-03T10:40:02.649Z,17344.00
2022-11-03T10:41:05.803Z,17344.00
2022-11-03T10:42:03.966Z,17108.00
2022-11-03T10:43:04.707Z,17100.00
2022-11-03T10:44:04.557Z,17472.00
2022-11-03T10:45:07.348Z,18016.00
2022-11-03T10:46:08.097Z,18528.00
2022-11-03T10:47:05.501Z,18528.00
2022-11-03T10:48:05.695Z,18624.00
2022-11-03T10:50:07.300Z,18784.00
2022-11-03T10:51:06.708Z,18912.00
2022-11-03T10:52:05.982Z,19264.00
2022-11-03T10:53:06.585Z,18912.00
2022-11-03T10:54:06.485Z,18752.00
2022-11-03T10:55:07.674Z,19136.00
2022-11-03T10:56:07.744Z,19264.00
2022-11-03T10:57:09.320Z,19104.00
2022-11-03T10:58:09.812Z,19008.00
2022-11-03T10:59:09.672Z,18880.00
2022-11-03T11:00:09.834Z,18624.00
2022-11-03T11:01:10.386Z,18912.00
2022-11-03T11:02:10.306Z,19008.00
2022-11-03T11:03:14.971Z,18880.00
2022-11-03T11:04:11.376Z,19072.00
2022-11-03T11:05:09.639Z,19424.00
2022-11-03T11:06:11.117Z,19808.00
2022-11-03T11:07:14.083Z,20704.00
2022-11-03T11:08:12.351Z,21632.00
2022-11-03T11:09:10.678Z,22272.00
2022-11-03T11:10:10.911Z,23264.00
2022-11-03T11:11:13.118Z,24448.00
2022-11-03T11:12:13.375Z,25056.00
2022-11-03T11:13:13.510Z,25408.00
2022-11-03T11:14:13.711Z,25984.00
2022-11-03T11:15:13.893Z,26112.00
2022-11-03T11:16:14.570Z,26336.00
2022-11-03T11:17:16.235Z,26144.00
2022-11-03T11:18:14.992Z,27808.00
2022-11-03T11:19:15.482Z,26752.00
2022-11-03T11:20:13.754Z,25600.00
2022-11-03T11:21:17.445Z,25824.00
2022-11-03T11:22:17.116Z,27104.00
2022-11-03T11:23:14.539Z,29440.00
2022-11-03T11:24:14.774Z,28768.00
2022-11-03T11:25:16.984Z,27872.00
2022-11-03T11:26:17.146Z,27328.00
2022-11-03T11:27:15.611Z,27968.00
2022-11-03T11:28:17.783Z,25600.00
2022-11-03T11:29:17.967Z,26336.00
2022-11-03T11:30:18.150Z,26240.00
2022-11-03T11:31:18.321Z,26400.00
2022-11-03T11:32:19.486Z,25088.00
2022-11-03T11:33:19.223Z,25088.00
2022-11-03T11:34:17.572Z,23872.00
2022-11-03T11:35:19.708Z,23104.00
2022-11-03T11:36:18.191Z,21280.00
2022-11-03T11:37:19.278Z,20640.00
2022-11-03T11:38:18.574Z,20288.00
2022-11-03T11:39:20.733Z,19744.00
2022-11-03T11:40:20.928Z,18912.00
2022-11-03T11:41:20.459Z,18656.00
2022-11-03T11:42:21.148Z,18144.00
2022-11-03T11:43:19.953Z,17696.00
2022-11-03T11:44:22.147Z,17568.00
2022-11-03T11:45:20.562Z,17536.00
2022-11-03T11:46:20.811Z,17408.00
2022-11-03T11:47:23.953Z,17344.00
2022-11-03T11:48:23.189Z,17408.00
2022-11-03T11:49:21.619Z,17440.00
2022-11-03T11:50:23.807Z,17376.00
2022-11-03T11:51:22.123Z,17344.00
2022-11-03T11:52:23.374Z,17344.00
2022-11-03T11:53:27.453Z,17184.00
2022-11-03T11:54:23.890Z,16880.00
2022-11-03T11:55:25.068Z,16724.00
2022-11-03T11:56:23.423Z,16552.00
2022-11-03T11:57:25.730Z,16288.00
2022-11-03T11:58:23.897Z,15972.00
2022-11-03T11:59:26.403Z,15656.00
2022-11-03T12:00:24.424Z,15336.00
2022-11-03T12:01:26.705Z,15060.00
2022-11-03T12:02:27.038Z,14788.00
2022-11-03T12:03:27.001Z,14556.00
2022-11-03T12:04:26.691Z,14376.00
2022-11-03T12:05:25.960Z,14204.00
2022-11-03T12:06:26.189Z,14048.00
2022-11-03T12:07:28.370Z,13884.00
2022-11-03T12:08:26.672Z,13700.00
2022-11-03T12:09:26.890Z,13480.00
2022-11-03T12:10:27.119Z,13164.00
2022-11-03T12:11:28.383Z,12864.00
2022-11-03T12:12:29.574Z,12512.00
2022-11-03T12:13:27.960Z,12220.00
2022-11-03T12:14:28.194Z,12052.00
2022-11-03T12:15:28.423Z,12032.00
2022-11-03T12:16:28.655Z,12328.00
2022-11-03T12:17:30.830Z,13028.00
2022-11-03T12:18:29.127Z,13780.00
2022-11-03T12:19:29.355Z,13996.00
2022-11-03T12:20:31.552Z,14568.00
2022-11-03T12:21:29.846Z,14744.00
2022-11-03T12:22:32.062Z,14368.00
2022-11-03T12:23:30.351Z,15092.00
2022-11-03T12:24:30.759Z,15832.00
2022-11-03T12:25:33.728Z,16392.00
2022-11-03T12:26:31.162Z,17408.00
2022-11-03T12:27:31.388Z,18400.00
2022-11-03T12:28:33.582Z,18752.00
2022-11-03T12:29:34.707Z,19008.00
2022-11-03T12:30:36.888Z,19552.00
2022-11-03T12:31:36.902Z,19744.00
2022-11-03T12:32:35.793Z,19744.00
2022-11-03T12:33:34.752Z,20032.00
2022-11-03T12:34:34.946Z,20480.00
2022-11-03T12:35:33.799Z,22112.00
2022-11-03T12:36:33.821Z,21888.00
2022-11-03T12:37:36.020Z,22560.00
2022-11-03T12:38:36.202Z,26880.00
2022-11-03T12:39:34.624Z,26048.00
2022-11-03T12:40:34.857Z,26848.00
2022-11-03T12:41:36.087Z,26688.00
2022-11-03T12:42:35.384Z,25632.00
2022-11-03T12:43:39.011Z,26080.00
2022-11-03T12:44:42.790Z,27232.00
2022-11-03T12:45:38.933Z,27296.00
2022-11-03T12:46:38.142Z,27136.00